Nearby METAR Reports

 

YSCB - Canberra (civ/Mi, Australia
Distance from station: NNE 21km
Updated: 18/11/2017 11:30
Nearby showers, Overcast
Nearby showers, Overcast
 Wind from E
Wind: E 17 km/h
Temperature: 18°C
Dew Point: 13°C
Humidity: 73%
Barometer: 1020 hPa
Summary: Nearby Showers
Clouds: Overcast
Visibility: 10 km
Cloud details: Partly cloudy 610 m
Partly cloudy 914 m
Overcast 1829 m
2017/11/18 00:30 YSCB 180030Z 09009KT 9999 VCSH SCT020 SCT030 OVC060 18/13 Q1020 INTER 0200/0330 5000 SHRA BKN020
YCOM - Cooma Snowy Mtns, Australia
Distance from station: S 94km
Updated: 18/11/2017 12:00
Overcast
Overcast
 Wind from ENE
Wind: ENE 19 km/h
Temperature: 14°C
Dew Point: 14°C
Humidity: 100%
Barometer: 1022 hPa
Clouds: Overcast
Visibility: 6 km
Cloud details: Mostly cloudy 244 m
Overcast 366 m
Overcast 610 m
2017/11/18 01:00 YCOM 180100Z AUTO 07010KT 6000 // BKN008 OVC012 OVC020 14/14 Q1022
 
YSNW - Nowra (aus-Navy), Australia
Distance from station: ENE 140km
Updated: 18/11/2017 11:19
Mostly cloudy
Mostly cloudy
 Wind from ENE
Wind: ENE 35 km/h
Temperature: 21°C
Dew Point: 17°C
Humidity: 78%
Barometer: 1020 hPa
Clouds: Mostly cloudy
Visibility: 10 km
Cloud details: Partly cloudy 579 m
Mostly cloudy 732 m
Mostly cloudy 853 m
2017/11/18 00:19 YSNW 180019Z AUTO 06019KT 9999 // SCT019 BKN024 BKN028 21/17 Q1020
YSWG - Wagga Wagga(Cv/M, Australia
Distance from station: WNW 153km
Updated: 18/11/2017 11:00
Light rain, Mostly cloudy
Light rain, Mostly cloudy
 Wind from E
Wind: E 30 km/h
Temperature: 18°C
Dew Point: 15°C
Humidity: 83%
Barometer: 1018 hPa
Summary: Light rain
Clouds: Mostly cloudy
Visibility: 10 km
Cloud details: Few Clouds 1372 m
Mostly cloudy 2134 m
Mostly cloudy 2743 m
2017/11/18 00:00 YSWG 180000Z 08016KT 9999 -RA FEW045 BKN070 BKN090 18/15 Q1018
 
YMER - Merimbula Arpt, Australia
Distance from station: SSE 177km
Updated: 18/11/2017 11:00
Overcast
Overcast
 Wind from NE
Wind: NE 17 km/h
Temperature: 22°C
Dew Point: 17°C
Humidity: 73%
Barometer: 1021 hPa
Clouds: Overcast
Visibility: 10 km
Cloud details: Overcast 2347 m
2017/11/18 00:00 YMER 180000Z AUTO 05009KT 9999 // OVC077 22/17 Q1021
YMAY - Albury Airport, Australia
Distance from station: WSW 207km
Updated: 18/11/2017 12:02
Partly cloudy
Partly cloudy
 Wind from SSE
Wind: SSE 6 km/h
Temperature: 18°C
Dew Point: 17°C
Humidity: 94%
Barometer: 1018 hPa
Clouds: Partly cloudy
Visibility: 4 km
Cloud details: Partly cloudy 2225 m
Partly cloudy 2835 m
2017/11/18 01:02 YMAY 180102Z AUTO 15003KT 4200 // SCT073 SCT093 18/17 Q1018
 
YNAR - Narrandera, Australia
Distance from station: WNW 250km
Updated: 18/11/2017 11:00

 Wind from ENE
Wind: ENE 26 km/h
Temperature: 24°C
Dew Point: 14°C
Humidity: 54%
Barometer: 1016 hPa
2017/11/18 00:00 YNAR 180000Z AUTO 07014KT //// // ////// 24/14 Q1016
YSSY - Sydney Intl Airp, Australia
Distance from station: NE 253km
Updated: 18/11/2017 11:30
Light rain, Showers, Mostly cloudy
Light rain, Showers, Mostly cloudy
 Wind from NE
Wind: NE 35 km/h
Temperature: 22°C
Dew Point: 15°C
Humidity: 65%
Barometer: 1020 hPa
Summary: Light rain, Showers
Clouds: Mostly cloudy
Visibility: 10 km
Cloud details: Few Clouds 610 m
Mostly cloudy 2438 m
2017/11/18 00:30 YSSY 180030Z 05019KT 9999 -SHRA FEW020 BKN080 22/15 Q1020 INTER 0100/0200 4000 SHRA BKN010 FM0030 MOD TURB BLW 5000FT
 
YSRI - Richmond (aus-Af, Australia
Distance from station: NE 257km
Updated: 18/11/2017 12:00
Mostly cloudy
Mostly cloudy
 Wind from E
Wind: E 20 km/h
Temperature: 23°C
Dew Point: 15°C
Humidity: 61%
Barometer: 1018 hPa
Clouds: Mostly cloudy
Visibility: 10 km
Cloud details: Partly cloudy 1158 m
Partly cloudy 1341 m
Mostly cloudy 1615 m
2017/11/18 01:00 YSRI 180100Z AUTO 08011KT 9999 // SCT038 SCT044 BKN053 23/15 Q1018
YWGT - Wangaratta Arp, Australia
Distance from station: WSW 274km
Updated: 18/11/2017 11:00
Overcast
Overcast
 Wind from E
Wind: E 13 km/h
Temperature: 24°C
Dew Point: 13°C
Humidity: 50%
Barometer: 1017 hPa
Clouds: Overcast
Visibility: 10 km
Cloud details: Overcast 1615 m
2017/11/18 00:00 YWGT 180000Z AUTO 08007KT 9999 // OVC053 24/13 Q1017
 
YGTH - Griffith Arpt, Australia
Distance from station: WNW 308km
Updated: 18/11/2017 11:30
Mostly cloudy
Mostly cloudy
 Wind from E
Wind: E 28 km/h
Temperature: 27°C
Dew Point: 12°C
Humidity: 39%
Barometer: 1014 hPa
Clouds: Mostly cloudy
Visibility: 10 km
Cloud details: Partly cloudy 1494 m
Mostly cloudy 1676 m
2017/11/18 00:30 YGTH 180030Z AUTO 09015KT 9999 // SCT049 BKN055 27/12 Q1014